Time;durP1;ratioP1;P1;durP2;ratioP2;P2;SDS_P1;SDS_P2;PMS_P1;PMS_P2;Temp;Humidity;BMP_temperature;BMP_pressure;BME280_temperature;BME280_humidity;BME280_pressure;Samples;Min_cycle;Max_cycle;Signal;HPM_P1;HPM_P2
2022/12/17 13:07:38;;;;;;;28.95;14.43;;;;;;;;;;5083580;28;20090;-86
2022/12/17 13:10:25;;;;;;;27.30;13.95;;;;;;;;;;5053340;28;20046;-86
2022/12/17 13:13:16;;;;;;;34.08;15.32;;;;;;;;;;5084516;28;20037;-86
2022/12/17 13:16:48;;;;;;;39.35;15.32;;;;;;;;;;5082577;28;20081;-86
2022/12/17 13:19:30;;;;;;;30.17;14.27;;;;;;;;;;5046492;28;20044;-86
2022/12/17 13:22:15;;;;;;;35.30;15.32;;;;;;;;;;5073946;28;20040;-86
2022/12/17 13:25:16;;;;;;;36.42;14.23;;;;;;;;;;5065091;28;20582;-86
2022/12/17 13:27:49;;;;;;;43.13;15.10;;;;;;;;;;5072073;28;20063;-86
2022/12/17 13:30:16;;;;;;;36.72;15.48;;;;;;;;;;5064444;28;20573;-86
2022/12/17 13:33:03;;;;;;;45.22;14.82;;;;;;;;;;5061925;28;20067;-86
2022/12/17 13:36:02;;;;;;;35.08;14.63;;;;;;;;;;5064505;28;20050;-86
2022/12/17 13:39:13;;;;;;;26.02;12.90;;;;;;;;;;5078577;28;20040;-85
2022/12/17 13:41:53;;;;;;;27.33;12.30;;;;;;;;;;5067078;28;20063;-85
2022/12/17 13:44:26;;;;;;;21.90;12.00;;;;;;;;;;5078992;28;20041;-85
2022/12/17 13:46:59;;;;;;;27.10;12.23;;;;;;;;;;5057702;28;20435;-85
2022/12/17 13:49:29;;;;;;;27.60;11.57;;;;;;;;;;5041947;28;20046;-85
2022/12/17 13:52:05;;;;;;;23.10;11.55;;;;;;;;;;5073723;28;20040;-86
2022/12/17 13:54:43;;;;;;;26.10;12.70;;;;;;;;;;5062753;28;20044;-85
2022/12/17 13:57:22;;;;;;;29.17;12.77;;;;;;;;;;5078098;28;20089;-85
2022/12/17 13:59:58;;;;;;;26.65;12.40;;;;;;;;;;5064369;28;20505;-86
2022/12/17 14:02:40;;;;;;;24.25;11.63;;;;;;;;;;5090723;28;20033;-86
2022/12/17 14:05:25;;;;;;;23.73;12.00;;;;;;;;;;5084474;28;20042;-86
2022/12/17 14:07:58;;;;;;;32.53;12.30;;;;;;;;;;5081721;28;20039;-86
2022/12/17 14:10:27;;;;;;;26.35;11.10;;;;;;;;;;5089712;28;20036;-86
2022/12/17 14:13:11;;;;;;;47.03;12.30;;;;;;;;;;5048502;28;20079;-86
2022/12/17 14:15:44;;;;;;;33.58;12.27;;;;;;;;;;5080669;28;20119;-86
2022/12/17 14:18:16;;;;;;;35.75;13.40;;;;;;;;;;5058866;28;20040;-86
2022/12/17 14:20:45;;;;;;;26.13;13.60;;;;;;;;;;5077505;28;20040;-85
2022/12/17 14:23:25;;;;;;;27.55;13.13;;;;;;;;;;5082241;28;20409;-85
2022/12/17 14:25:58;;;;;;;22.17;10.93;;;;;;;;;;5059392;28;20040;-85
2022/12/17 14:28:35;;;;;;;33.65;14.50;;;;;;;;;;5075151;28;20048;-85
2022/12/17 14:31:23;;;;;;;36.40;17.00;;;;;;;;;;5075767;28;20050;-86
2022/12/17 14:34:06;;;;;;;40.88;18.13;;;;;;;;;;5047929;28;20041;-86
2022/12/17 14:36:36;;;;;;;31.17;15.20;;;;;;;;;;5061363;28;20975;-86
2022/12/17 14:39:16;;;;;;;31.55;14.25;;;;;;;;;;5061705;28;20136;-85
2022/12/17 14:45:02;;;;;;;28.50;12.35;;;;;;;;;;5055899;28;20136;-85
2022/12/17 14:47:36;;;;;;;22.95;11.95;;;;;;;;;;5073571;28;20047;-85
2022/12/17 14:50:06;;;;;;;19.15;11.68;;;;;;;;;;5057921;28;20491;-85
2022/12/17 14:52:42;;;;;;;28.55;11.00;;;;;;;;;;5053183;28;20036;-85
2022/12/17 14:55:21;;;;;;;24.60;11.60;;;;;;;;;;5068022;28;20111;-85
2022/12/17 14:57:49;;;;;;;24.40;12.38;;;;;;;;;;5070839;28;20039;-85
2022/12/17 15:00:17;;;;;;;29.67;12.85;;;;;;;;;;5042441;28;20068;-86
2022/12/17 15:02:53;;;;;;;32.10;13.27;;;;;;;;;;5080413;28;20044;-85
2022/12/17 15:05:51;;;;;;;41.45;14.98;;;;;;;;;;5081855;28;20062;-85
2022/12/17 15:08:19;;;;;;;33.38;14.68;;;;;;;;;;5079419;28;20119;-85
2022/12/17 15:11:17;;;;;;;36.17;14.63;;;;;;;;;;5070475;28;20039;-85
2022/12/17 15:14:09;;;;;;;30.70;13.32;;;;;;;;;;5070566;28;20039;-85
2022/12/17 15:16:36;;;;;;;35.92;14.43;;;;;;;;;;5066987;28;20039;-85
2022/12/17 15:19:05;;;;;;;31.58;12.50;;;;;;;;;;5074859;28;20044;-85
2022/12/17 15:21:32;;;;;;;25.38;12.40;;;;;;;;;;5054246;28;20078;-86
2022/12/17 15:24:08;;;;;;;27.77;12.90;;;;;;;;;;5038571;28;20047;-86
2022/12/17 15:26:36;;;;;;;30.45;12.23;;;;;;;;;;5055675;28;20500;-86
2022/12/17 15:29:30;;;;;;;24.85;10.63;;;;;;;;;;5062062;28;20028;-86
2022/12/17 15:34:56;;;;;;;23.17;11.32;;;;;;;;;;5044981;28;20513;-86
2022/12/17 15:37:24;;;;;;;22.02;10.18;;;;;;;;;;5082210;28;20043;-87
2022/12/17 15:39:56;;;;;;;25.00;10.38;;;;;;;;;;5065813;28;20049;-86
2022/12/17 15:45:10;;;;;;;24.73;10.13;;;;;;;;;;5074706;28;20514;-87
2022/12/17 15:47:38;;;;;;;22.88;12.00;;;;;;;;;;5063165;28;20051;-86
2022/12/17 15:50:07;;;;;;;21.75;10.45;;;;;;;;;;5059252;28;20041;-87
2022/12/17 15:52:39;;;;;;;23.02;10.93;;;;;;;;;;5050700;28;20036;-87
2022/12/17 15:55:06;;;;;;;22.90;11.27;;;;;;;;;;5069796;28;20056;-86
2022/12/17 15:57:34;;;;;;;18.10;9.20;;;;;;;;;;5055144;28;20036;-87
2022/12/17 16:00:04;;;;;;;20.42;9.88;;;;;;;;;;5054327;28;20036;-87
2022/12/17 16:02:37;;;;;;;22.58;10.15;;;;;;;;;;5036902;28;20093;-86
2022/12/17 16:08:37;;;;;;;18.17;9.73;;;;;;;;;;4995391;28;20053;-87
2022/12/17 16:11:11;;;;;;;21.58;10.63;;;;;;;;;;4998830;28;20113;-86
2022/12/17 16:14:04;;;;;;;22.92;9.90;;;;;;;;;;4994940;28;20044;-87
2022/12/17 16:16:32;;;;;;;17.92;9.30;;;;;;;;;;4973300;28;20046;-86
2022/12/17 16:19:25;;;;;;;16.45;8.40;;;;;;;;;;4992753;28;20136;-86
2022/12/17 16:21:52;;;;;;;19.73;9.07;;;;;;;;;;4991357;28;20085;-87
2022/12/17 16:24:20;;;;;;;20.92;9.50;;;;;;;;;;4991746;28;20518;-87
2022/12/17 16:26:48;;;;;;;20.13;9.45;;;;;;;;;;4992636;28;20124;-86
2022/12/17 16:29:16;;;;;;;19.50;9.38;;;;;;;;;;4990400;28;20105;-87
2022/12/17 16:31:45;;;;;;;18.10;10.10;;;;;;;;;;4991996;28;20531;-87
2022/12/17 16:34:12;;;;;;;19.98;9.27;;;;;;;;;;4994510;28;20129;-87
2022/12/17 16:36:41;;;;;;;18.52;9.05;;;;;;;;;;4997337;28;20039;-87
2022/12/17 16:39:14;;;;;;;20.60;8.50;;;;;;;;;;4993322;28;20096;-87
2022/12/17 16:42:06;;;;;;;23.77;8.77;;;;;;;;;;4996472;28;20050;-87
2022/12/17 16:44:38;;;;;;;19.25;9.98;;;;;;;;;;5045488;28;20051;-85
2022/12/17 16:47:06;;;;;;;17.20;9.60;;;;;;;;;;5042679;28;20044;-85
2022/12/17 16:49:34;;;;;;;24.10;10.80;;;;;;;;;;5058075;28;20496;-85
2022/12/17 16:52:02;;;;;;;21.83;10.45;;;;;;;;;;5077946;28;20041;-85
2022/12/17 16:54:32;;;;;;;25.50;10.93;;;;;;;;;;5074993;28;20124;-85
2022/12/17 16:57:04;;;;;;;24.40;10.82;;;;;;;;;;5073698;28;20064;-85
2022/12/17 16:59:32;;;;;;;27.50;10.55;;;;;;;;;;5043568;28;20069;-85
2022/12/17 17:02:01;;;;;;;22.67;11.20;;;;;;;;;;5069500;28;20075;-85
2022/12/17 17:04:34;;;;;;;24.23;10.50;;;;;;;;;;5076813;28;20643;-84
2022/12/17 17:07:26;;;;;;;19.63;10.65;;;;;;;;;;5079147;28;20036;-85
2022/12/17 17:09:54;;;;;;;24.40;10.52;;;;;;;;;;5059534;28;20059;-85
2022/12/17 17:12:22;;;;;;;22.27;10.07;;;;;;;;;;5056086;28;20149;-85
2022/12/17 17:14:50;;;;;;;23.00;11.65;;;;;;;;;;5074579;28;20064;-84
2022/12/17 17:17:42;;;;;;;22.65;10.85;;;;;;;;;;5074300;28;20188;-85
2022/12/17 17:20:22;;;;;;;30.23;14.60;;;;;;;;;;5077678;28;20042;-85
2022/12/17 17:22:50;;;;;;;27.27;11.35;;;;;;;;;;5076651;28;20040;-85
2022/12/17 17:25:22;;;;;;;28.23;12.98;;;;;;;;;;5069923;28;20028;-85
2022/12/17 17:28:14;;;;;;;26.77;12.75;;;;;;;;;;5025189;28;20043;-85
2022/12/17 17:30:42;;;;;;;30.25;13.55;;;;;;;;;;5068169;28;20544;-86
2022/12/17 17:33:39;;;;;;;25.73;12.40;;;;;;;;;;5058496;28;20040;-84
2022/12/17 17:36:11;;;;;;;25.15;12.32;;;;;;;;;;5070381;28;20501;-85
2022/12/17 17:38:39;;;;;;;27.40;10.48;;;;;;;;;;5054405;28;20051;-86
2022/12/17 17:41:15;;;;;;;22.05;11.60;;;;;;;;;;5069665;28;20041;-85
2022/12/17 17:43:43;;;;;;;22.95;11.82;;;;;;;;;;5040488;28;20063;-85
2022/12/17 17:46:16;;;;;;;22.60;10.95;;;;;;;;;;5051792;28;20063;-85
2022/12/17 17:48:46;;;;;;;26.27;11.20;;;;;;;;;;5051447;28;20036;-85
2022/12/17 17:51:22;;;;;;;21.90;10.38;;;;;;;;;;5055414;28;20036;-85
2022/12/17 17:54:10;;;;;;;27.58;11.00;;;;;;;;;;5075088;28;20051;-85
2022/12/17 17:56:42;;;;;;;21.35;10.68;;;;;;;;;;5060376;28;20033;-86
2022/12/17 17:59:14;;;;;;;22.65;10.98;;;;;;;;;;5034502;28;20045;-87
2022/12/17 18:01:45;;;;;;;22.25;10.57;;;;;;;;;;5063282;28;20039;-86
2022/12/17 18:04:20;;;;;;;17.92;8.60;;;;;;;;;;5056444;28;20036;-86
2022/12/17 18:06:49;;;;;;;19.38;9.55;;;;;;;;;;5058082;28;20391;-86
2022/12/17 18:09:36;;;;;;;20.35;10.77;;;;;;;;;;5070140;28;20052;-86
2022/12/17 18:14:54;;;;;;;23.08;10.43;;;;;;;;;;5055617;28;20495;-86
2022/12/17 18:17:50;;;;;;;21.35;9.77;;;;;;;;;;5044568;28;20056;-87
2022/12/17 18:20:22;;;;;;;23.10;9.90;;;;;;;;;;5076269;28;20394;-86
2022/12/17 18:22:50;;;;;;;21.85;10.20;;;;;;;;;;5076070;28;20067;-85
2022/12/17 18:25:18;;;;;;;25.33;12.20;;;;;;;;;;5034760;28;20124;-85
2022/12/17 18:27:52;;;;;;;23.90;11.25;;;;;;;;;;5068092;28;20410;-86
2022/12/17 18:30:20;;;;;;;18.17;9.65;;;;;;;;;;5062530;28;20033;-85
2022/12/17 18:32:48;;;;;;;22.80;10.27;;;;;;;;;;5066907;28;20112;-86
2022/12/17 18:35:17;;;;;;;17.90;9.23;;;;;;;;;;5067779;28;20132;-86
2022/12/17 18:37:44;;;;;;;27.58;12.15;;;;;;;;;;5055123;28;20036;-86
2022/12/17 18:40:12;;;;;;;22.17;10.35;;;;;;;;;;5064418;28;20054;-87
2022/12/17 18:45:26;;;;;;;19.38;10.80;;;;;;;;;;5070892;28;20040;-85
2022/12/17 18:47:54;;;;;;;24.33;11.40;;;;;;;;;;5068509;28;20037;-86
2022/12/17 18:53:24;;;;;;;27.42;12.38;;;;;;;;;;5048091;28;20102;-85
2022/12/17 18:55:56;;;;;;;27.17;11.82;;;;;;;;;;5053468;28;20044;-85
2022/12/17 18:58:52;;;;;;;32.42;11.15;;;;;;;;;;5055611;28;20115;-85
2022/12/17 19:01:29;;;;;;;27.70;12.20;;;;;;;;;;5051773;28;20048;-85
2022/12/17 19:04:05;;;;;;;24.92;12.65;;;;;;;;;;5077397;28;20068;-85
2022/12/17 19:06:34;;;;;;;23.27;11.65;;;;;;;;;;5044422;28;20028;-85
2022/12/17 19:09:07;;;;;;;29.98;11.63;;;;;;;;;;5067699;28;20055;-85
2022/12/17 19:11:34;;;;;;;26.75;12.60;;;;;;;;;;5075505;28;20072;-85
2022/12/17 19:14:10;;;;;;;26.27;12.57;;;;;;;;;;5057285;28;20052;-85
2022/12/17 19:16:38;;;;;;;22.77;11.10;;;;;;;;;;5059934;28;20118;-85
2022/12/17 19:19:06;;;;;;;22.05;12.23;;;;;;;;;;5065385;28;20047;-86
2022/12/17 19:21:34;;;;;;;21.15;10.57;;;;;;;;;;5071172;28;20036;-85
2022/12/17 19:24:05;;;;;;;26.88;11.70;;;;;;;;;;5074253;28;20040;-86
2022/12/17 19:26:33;;;;;;;22.83;11.93;;;;;;;;;;5037929;28;20051;-85
2022/12/17 19:29:01;;;;;;;25.40;11.77;;;;;;;;;;5045311;28;20139;-86
2022/12/17 19:31:35;;;;;;;22.70;11.93;;;;;;;;;;5072957;28;20032;-86
2022/12/17 19:34:05;;;;;;;22.73;12.50;;;;;;;;;;5056680;28;20098;-86
2022/12/17 19:36:34;;;;;;;26.95;12.43;;;;;;;;;;5075588;28;20040;-86
2022/12/17 19:39:05;;;;;;;24.17;11.68;;;;;;;;;;5058033;28;20063;-86
2022/12/17 19:41:33;;;;;;;26.80;13.52;;;;;;;;;;5075542;28;20035;-86
2022/12/17 19:44:10;;;;;;;29.27;13.77;;;;;;;;;;5073829;28;20047;-86
2022/12/17 19:46:39;;;;;;;34.22;13.70;;;;;;;;;;5056407;28;20040;-86
2022/12/17 19:49:07;;;;;;;26.63;11.93;;;;;;;;;;5058518;28;20782;-87
2022/12/17 19:51:38;;;;;;;23.02;12.07;;;;;;;;;;5078925;28;20105;-86
2022/12/17 19:54:06;;;;;;;29.73;13.13;;;;;;;;;;5077195;28;20064;-86
2022/12/17 19:56:42;;;;;;;24.67;12.43;;;;;;;;;;5076198;28;20074;-86
2022/12/17 19:59:11;;;;;;;26.55;11.40;;;;;;;;;;5051826;28;20051;-86
2022/12/17 20:01:46;;;;;;;24.23;12.25;;;;;;;;;;5060296;28;20036;-87
2022/12/17 20:04:15;;;;;;;24.17;11.90;;;;;;;;;;5059944;28;20040;-87
2022/12/17 20:06:43;;;;;;;40.40;17.40;;;;;;;;;;5068267;28;20040;-86
2022/12/17 20:09:16;;;;;;;35.47;14.90;;;;;;;;;;5066747;28;20039;-86
2022/12/17 20:11:44;;;;;;;27.70;14.63;;;;;;;;;;5076847;28;20064;-87
2022/12/17 20:14:19;;;;;;;27.80;13.55;;;;;;;;;;5057235;28;20041;-87
2022/12/17 20:17:00;;;;;;;28.23;13.27;;;;;;;;;;5058552;28;20048;-86
2022/12/17 20:19:30;;;;;;;26.30;11.77;;;;;;;;;;5072872;28;20040;-87
2022/12/17 20:22:04;;;;;;;24.52;12.27;;;;;;;;;;5044154;28;20044;-87
2022/12/17 20:24:32;;;;;;;21.50;11.70;;;;;;;;;;5043881;28;20043;-85
2022/12/17 20:27:00;;;;;;;21.40;11.30;;;;;;;;;;5057509;28;20044;-87
2022/12/17 20:29:28;;;;;;;24.77;12.27;;;;;;;;;;5060951;28;20040;-87
2022/12/17 20:31:56;;;;;;;25.52;13.35;;;;;;;;;;5045929;28;20140;-87
2022/12/17 20:34:28;;;;;;;24.60;12.93;;;;;;;;;;5061524;28;20045;-87
2022/12/17 20:36:56;;;;;;;27.38;13.45;;;;;;;;;;5057130;28;20036;-87
2022/12/17 20:39:48;;;;;;;24.30;11.63;;;;;;;;;;5056615;28;20036;-88
2022/12/17 20:42:16;;;;;;;25.02;11.35;;;;;;;;;;5077528;28;20410;-87
2022/12/17 20:44:44;;;;;;;23.40;11.73;;;;;;;;;;5067623;28;20049;-87
2022/12/17 20:47:20;;;;;;;28.42;11.57;;;;;;;;;;5075721;28;20040;-87
2022/12/17 20:49:48;;;;;;;29.40;13.68;;;;;;;;;;5058063;28;20504;-87
2022/12/17 20:52:16;;;;;;;28.48;12.77;;;;;;;;;;5043762;28;20053;-87
2022/12/17 20:54:48;;;;;;;23.67;12.07;;;;;;;;;;5072209;28;20036;-87
2022/12/17 20:57:41;;;;;;;29.48;13.13;;;;;;;;;;5062508;28;20122;-88
2022/12/17 21:00:09;;;;;;;24.02;12.32;;;;;;;;;;5054308;28;20127;-88
2022/12/17 21:02:37;;;;;;;31.15;12.90;;;;;;;;;;5055036;28;20040;-87
2022/12/17 21:05:04;;;;;;;24.35;12.63;;;;;;;;;;5070778;28;20048;-87
2022/12/17 21:07:32;;;;;;;22.27;13.55;;;;;;;;;;5035936;28;20089;-87
2022/12/17 21:10:05;;;;;;;22.60;11.95;;;;;;;;;;5074868;28;20036;-87
2022/12/17 21:13:27;;;;;;;21.95;12.00;;;;;;;;;;5072817;28;20423;-87
2022/12/17 21:15:21;;;;;;;21.55;11.57;;;;;;;;;;5075865;28;20047;-87
2022/12/17 21:17:48;;;;;;;21.98;11.15;;;;;;;;;;5076763;28;20506;-87
2022/12/17 21:20:16;;;;;;;28.20;11.38;;;;;;;;;;5074509;28;20036;-87
2022/12/17 21:22:44;;;;;;;26.98;11.63;;;;;;;;;;5071113;28;20078;-88
2022/12/17 21:25:12;;;;;;;24.08;10.88;;;;;;;;;;5072274;28;20044;-84
2022/12/17 21:27:40;;;;;;;25.63;12.50;;;;;;;;;;5055613;28;20979;-86
2022/12/17 21:30:09;;;;;;;29.38;12.73;;;;;;;;;;5059124;28;20119;-86
2022/12/17 21:33:02;;;;;;;26.45;13.18;;;;;;;;;;5065109;28;20035;-86
2022/12/17 21:35:30;;;;;;;19.90;10.75;;;;;;;;;;5056843;28;20044;-87
2022/12/17 21:37:58;;;;;;;24.05;10.73;;;;;;;;;;5059919;28;22059;-86
2022/12/17 21:40:26;;;;;;;22.17;11.73;;;;;;;;;;5073232;28;20102;-87
2022/12/17 21:43:00;;;;;;;25.17;12.30;;;;;;;;;;5075500;28;20127;-87
2022/12/17 21:45:40;;;;;;;27.58;11.32;;;;;;;;;;5075131;28;20049;-86
2022/12/17 21:48:14;;;;;;;26.17;11.65;;;;;;;;;;5077163;28;20086;-86
2022/12/17 21:50:44;;;;;;;23.95;10.82;;;;;;;;;;5080016;28;20032;-86
2022/12/17 21:53:17;;;;;;;25.30;12.43;;;;;;;;;;5056478;28;20040;-87
2022/12/17 21:55:47;;;;;;;18.98;11.20;;;;;;;;;;5059710;28;20048;-86
2022/12/17 21:58:14;;;;;;;26.65;11.52;;;;;;;;;;5060716;28;20032;-86
2022/12/17 22:00:42;;;;;;;22.50;11.27;;;;;;;;;;5076904;28;20414;-86
2022/12/17 22:03:14;;;;;;;20.25;9.80;;;;;;;;;;5074621;28;20036;-86
2022/12/17 22:05:46;;;;;;;24.25;10.50;;;;;;;;;;5079791;28;20047;-86
2022/12/17 22:08:14;;;;;;;21.02;10.50;;;;;;;;;;5044531;28;20441;-86
2022/12/17 22:10:42;;;;;;;20.75;9.60;;;;;;;;;;5059261;28;20028;-86
2022/12/17 22:16:05;;;;;;;21.75;11.07;;;;;;;;;;5081547;28;20048;-87
2022/12/17 22:18:32;;;;;;;18.30;8.93;;;;;;;;;;5051059;28;20625;-88
2022/12/17 22:21:01;;;;;;;18.33;10.30;;;;;;;;;;5047091;28;20137;-88
2022/12/17 22:23:28;;;;;;;18.77;9.02;;;;;;;;;;5059542;28;20044;-87
2022/12/17 22:26:20;;;;;;;19.38;9.07;;;;;;;;;;5069746;28;20041;-86
2022/12/17 22:28:48;;;;;;;19.00;10.25;;;;;;;;;;5052706;28;20041;-87
2022/12/17 22:34:09;;;;;;;31.17;9.32;;;;;;;;;;5071053;28;20672;-87
2022/12/17 22:37:22;;;;;;;19.23;9.02;;;;;;;;;;5060725;28;20705;-87
2022/12/17 22:40:11;;;;;;;20.80;9.85;;;;;;;;;;5081117;28;20042;-87
2022/12/17 22:46:12;;;;;;;16.73;9.07;;;;;;;;;;5071285;28;20034;-86
2022/12/17 22:48:40;;;;;;;20.73;8.90;;;;;;;;;;5081243;28;20691;-87
2022/12/17 22:51:09;;;;;;;20.50;9.82;;;;;;;;;;5078392;28;20040;-87
2022/12/17 22:53:54;;;;;;;23.45;9.82;;;;;;;;;;5066660;28;20035;-87
2022/12/17 22:56:22;;;;;;;16.02;8.45;;;;;;;;;;5080039;28;20040;-86
2022/12/17 22:59:15;;;;;;;18.67;8.23;;;;;;;;;;5080073;28;20035;-87
2022/12/17 23:01:48;;;;;;;12.50;6.82;;;;;;;;;;5081778;28;20371;-87
2022/12/17 23:04:16;;;;;;;20.42;8.85;;;;;;;;;;5060841;28;20055;-87
2022/12/17 23:06:45;;;;;;;18.73;9.90;;;;;;;;;;5082957;28;20028;-87
2022/12/17 23:09:19;;;;;;;17.17;7.85;;;;;;;;;;5062750;28;20064;-87
2022/12/17 23:15:05;;;;;;;22.23;9.27;;;;;;;;;;5076772;28;20815;-87
2022/12/17 23:17:32;;;;;;;19.15;9.18;;;;;;;;;;5061903;28;20036;-88
2022/12/17 23:20:03;;;;;;;15.38;8.05;;;;;;;;;;5081704;28;20042;-88
2022/12/17 23:22:30;;;;;;;17.98;10.05;;;;;;;;;;5080917;28;20067;-88
2022/12/17 23:24:58;;;;;;;14.50;8.02;;;;;;;;;;5082231;28;20411;-87
2022/12/17 23:27:31;;;;;;;15.25;8.10;;;;;;;;;;5062047;28;20127;-88
2022/12/17 23:29:58;;;;;;;15.60;8.32;;;;;;;;;;5062650;28;20055;-88
2022/12/17 23:32:27;;;;;;;14.20;7.88;;;;;;;;;;5061443;28;20774;-87
2022/12/17 23:35:03;;;;;;;20.00;9.02;;;;;;;;;;5038100;28;20040;-87
2022/12/17 23:37:30;;;;;;;14.85;7.57;;;;;;;;;;5062303;28;20044;-87
2022/12/17 23:40:09;;;;;;;16.73;8.90;;;;;;;;;;5078208;28;20453;-87
2022/12/17 23:42:37;;;;;;;15.20;8.77;;;;;;;;;;5078841;28;20044;-87
2022/12/17 23:45:30;;;;;;;18.90;8.30;;;;;;;;;;5076748;28;20589;-87
2022/12/17 23:47:58;;;;;;;18.02;9.05;;;;;;;;;;5045642;28;20128;-87
2022/12/17 23:50:50;;;;;;;17.58;7.93;;;;;;;;;;5078412;28;20674;-87
2022/12/17 23:53:18;;;;;;;26.60;9.63;;;;;;;;;;5079042;28;20046;-87
2022/12/17 23:55:50;;;;;;;19.80;9.93;;;;;;;;;;5081471;28;20039;-87
2022/12/17 23:58:22;;;;;;;15.70;8.65;;;;;;;;;;5078784;28;20659;-87
